Time;durP1;ratioP1;P1;durP2;ratioP2;P2;SDS_P1;SDS_P2;PMS_P1;PMS_P2;Temp;Humidity;BMP_temperature;BMP_pressure;BME280_temperature;BME280_humidity;BME280_pressure;Samples;Min_cycle;Max_cycle;Signal;HPM_P1;HPM_P2
2022/04/17 00:01:09;;;;;;;3.10;2.45;;;;;;;20.51;37.63;100864.27;1752397;81;20913;-60
2022/04/17 00:03:35;;;;;;;2.67;2.10;;;;;;;20.50;37.61;100873.11;1723026;80;21384;-60
2022/04/17 00:06:01;;;;;;;3.62;2.60;;;;;;;20.49;37.62;100872.89;1752360;81;21206;-60
2022/04/17 00:08:27;;;;;;;3.77;2.42;;;;;;;20.50;37.62;100882.79;1752126;81;21416;-60
2022/04/17 00:10:53;;;;;;;3.15;2.42;;;;;;;20.50;37.63;100890.26;1752058;81;21265;-60
2022/04/17 00:13:20;;;;;;;3.40;2.50;;;;;;;20.50;37.63;100889.70;1752241;81;20952;-60
2022/04/17 00:15:46;;;;;;;3.30;2.25;;;;;;;20.50;37.62;100883.34;1752124;81;21088;-60
2022/04/17 00:18:12;;;;;;;3.22;2.22;;;;;;;20.50;37.61;100886.11;1752004;80;21307;-60
2022/04/17 00:20:39;;;;;;;2.90;2.33;;;;;;;20.49;37.61;100884.50;1751776;80;20885;-60
2022/04/17 00:23:05;;;;;;;3.85;2.30;;;;;;;20.49;37.62;100876.22;1752712;81;20976;-60
2022/04/17 00:25:31;;;;;;;2.67;2.37;;;;;;;20.49;37.62;100874.27;1746860;81;21377;-60
2022/04/17 00:27:57;;;;;;;3.15;2.27;;;;;;;20.48;37.59;100882.87;1744062;81;20968;-60
2022/04/17 00:30:29;;;;;;;2.35;2.02;;;;;;;20.48;37.61;100882.30;1732511;82;21161;-60
2022/04/17 00:32:55;;;;;;;2.83;2.10;;;;;;;20.47;37.59;100891.72;1732792;82;20943;-60
2022/04/17 00:35:21;;;;;;;3.27;2.08;;;;;;;20.48;37.57;100896.12;1732918;82;20881;-60
2022/04/17 00:37:47;;;;;;;3.80;2.08;;;;;;;20.49;37.57;100899.70;1733017;82;20924;-60
2022/04/17 00:40:13;;;;;;;3.40;2.15;;;;;;;20.47;37.56;100903.33;1732260;82;20912;-60
2022/04/17 00:42:40;;;;;;;3.15;2.50;;;;;;;20.47;37.57;100894.48;1732895;82;21289;-60
2022/04/17 00:45:08;;;;;;;3.02;2.25;;;;;;;20.46;37.54;100890.64;1732781;82;20960;-60
2022/04/17 00:47:35;;;;;;;3.35;2.35;;;;;;;20.47;37.54;100895.05;1732667;82;21055;-60
2022/04/17 00:50:08;;;;;;;3.22;2.10;;;;;;;20.46;37.52;100886.50;1732755;82;21063;-60
2022/04/17 00:52:34;;;;;;;2.92;2.10;;;;;;;20.47;37.54;100896.42;1732796;82;21019;-60
2022/04/17 00:55:01;;;;;;;2.45;2.08;;;;;;;20.46;37.51;100885.93;1733074;82;21880;-60
2022/04/17 00:57:27;;;;;;;2.35;2.00;;;;;;;20.46;37.50;100885.93;1732816;82;21383;-60
2022/04/17 00:59:53;;;;;;;2.77;2.00;;;;;;;20.46;37.51;100894.78;1732957;82;20936;-60
2022/04/17 01:02:19;;;;;;;2.67;2.30;;;;;;;20.45;37.49;100889.03;1732571;82;21007;-60
2022/04/17 01:04:45;;;;;;;2.85;2.10;;;;;;;20.45;37.49;100895.34;1733050;82;21070;-60
2022/04/17 01:07:11;;;;;;;3.08;2.05;;;;;;;20.45;37.46;100898.11;1733001;82;21638;-60
2022/04/17 01:09:38;;;;;;;2.77;1.90;;;;;;;20.46;37.46;100892.02;1732416;82;20913;-60
2022/04/17 01:12:09;;;;;;;3.17;2.15;;;;;;;20.45;37.46;100896.73;1732672;82;21337;-60
2022/04/17 01:14:40;;;;;;;2.80;2.02;;;;;;;20.45;37.45;100909.76;1733023;82;20956;-60
2022/04/17 01:17:06;;;;;;;3.90;2.30;;;;;;;20.44;37.45;100906.73;1733044;82;20969;-60
2022/04/17 01:19:37;;;;;;;2.65;2.15;;;;;;;20.44;37.44;100913.08;1732853;82;21128;-60
2022/04/17 01:22:02;;;;;;;4.03;2.12;;;;;;;20.43;37.44;100905.91;1732734;82;21550;-60
2022/04/17 01:27:13;;;;;;;2.90;2.10;;;;;;;20.44;37.42;100915.84;1717956;82;21650;-60
2022/04/17 01:29:40;;;;;;;2.98;1.92;;;;;;;20.43;37.40;100913.38;1742308;81;21067;-60
2022/04/17 01:32:08;;;;;;;2.70;2.10;;;;;;;20.43;37.40;100909.23;1752410;81;21287;-60
2022/04/17 01:34:35;;;;;;;2.95;1.67;;;;;;;20.42;37.42;100915.33;1752424;80;21012;-60
2022/04/17 01:37:01;;;;;;;4.12;2.10;;;;;;;20.42;37.38;100915.89;1752218;81;21479;-60
2022/04/17 01:39:28;;;;;;;5.37;2.30;;;;;;;20.42;37.40;100924.18;1752558;80;21319;-60
2022/04/17 01:41:54;;;;;;;2.83;2.37;;;;;;;20.41;37.38;100920.59;1752424;81;20937;-60
2022/04/17 01:44:21;;;;;;;2.70;2.00;;;;;;;20.41;37.37;100930.86;1752306;81;21730;-60
2022/04/17 01:46:48;;;;;;;3.87;2.10;;;;;;;20.41;37.37;100923.95;1752217;81;20988;-60
2022/04/17 01:49:17;;;;;;;3.12;2.10;;;;;;;20.41;37.32;100929.48;1752446;80;20964;-60
2022/04/17 01:51:45;;;;;;;3.00;2.00;;;;;;;20.40;37.32;100935.56;1751671;81;21210;-60
2022/04/17 01:54:16;;;;;;;2.25;1.90;;;;;;;20.41;37.30;100936.39;1752016;81;21028;-60
2022/04/17 01:56:42;;;;;;;2.37;1.90;;;;;;;20.41;37.27;100939.15;1752515;81;20969;-60
2022/04/17 01:59:09;;;;;;;2.72;2.00;;;;;;;20.41;37.27;100940.53;1751777;81;21012;-60
2022/04/17 02:01:36;;;;;;;2.92;1.80;;;;;;;20.40;37.26;100944.42;1751985;81;20912;-60
2022/04/17 02:04:03;;;;;;;3.22;2.08;;;;;;;20.40;37.26;100943.86;1752210;81;21039;-60
2022/04/17 02:06:29;;;;;;;2.22;1.90;;;;;;;20.39;37.27;100943.59;1752170;81;21299;-60
2022/04/17 02:08:55;;;;;;;2.52;1.95;;;;;;;20.40;37.25;100943.86;1752377;81;21262;-60
2022/04/17 02:11:23;;;;;;;2.17;1.75;;;;;;;20.39;37.24;100940.84;1752341;80;21326;-60
2022/04/17 02:13:49;;;;;;;3.00;1.82;;;;;;;20.39;37.22;100948.30;1751871;81;20901;-60
2022/04/17 02:16:19;;;;;;;2.98;2.20;;;;;;;20.38;37.20;100932.28;1752497;81;20952;-60
2022/04/17 02:18:49;;;;;;;2.25;1.92;;;;;;;20.39;37.19;100931.72;1752259;81;20971;-60
2022/04/17 02:21:17;;;;;;;4.05;1.80;;;;;;;20.38;37.19;100928.70;1752236;81;21023;-60
2022/04/17 02:23:44;;;;;;;4.42;2.12;;;;;;;20.38;37.15;100945.28;1752040;80;20842;-60
2022/04/17 02:26:13;;;;;;;3.08;1.80;;;;;;;20.38;37.12;100943.90;1748726;81;20925;-60
2022/04/17 02:28:40;;;;;;;2.40;1.80;;;;;;;20.38;37.12;100950.80;1746113;82;21338;-60
2022/04/17 02:31:08;;;;;;;2.52;1.80;;;;;;;20.37;37.17;100949.16;1746798;82;20925;-60
2022/04/17 02:33:35;;;;;;;2.83;2.00;;;;;;;20.37;37.17;100949.98;1746790;80;21325;-60
2022/04/17 02:36:00;;;;;;;4.25;1.92;;;;;;;20.38;37.14;100955.77;1716966;82;20993;-60
2022/04/17 02:38:27;;;;;;;3.15;2.05;;;;;;;20.36;37.15;100955.28;1746834;82;20874;-60
2022/04/17 02:40:53;;;;;;;2.85;1.90;;;;;;;20.36;37.15;100957.23;1746532;82;21556;-60
2022/04/17 02:43:20;;;;;;;2.52;1.87;;;;;;;20.37;37.11;100962.98;1746535;82;20980;-60
2022/04/17 02:45:46;;;;;;;2.10;1.67;;;;;;;20.36;37.13;100959.43;1746437;82;21008;-60
2022/04/17 02:48:12;;;;;;;2.55;1.98;;;;;;;20.35;37.12;100962.49;1746563;82;20956;-60
2022/04/17 02:50:39;;;;;;;2.30;1.80;;;;;;;20.36;37.09;100950.31;1746257;82;20933;-60
2022/04/17 02:53:06;;;;;;;2.90;1.70;;;;;;;20.35;37.10;100939.83;1746767;82;20983;-60
2022/04/17 02:55:32;;;;;;;1.92;1.72;;;;;;;20.35;37.08;100921.05;1746268;80;21515;-60
2022/04/17 02:57:58;;;;;;;2.25;1.70;;;;;;;20.35;37.08;100892.03;1746282;82;21286;-60
2022/04/17 03:00:26;;;;;;;2.65;1.98;;;;;;;20.35;37.08;100858.31;1746739;82;21013;-60
2022/04/17 03:05:37;;;;;;;2.70;1.87;;;;;;;20.32;37.08;100864.48;1746329;80;20922;-60
2022/04/17 03:08:13;;;;;;;1.98;1.62;;;;;;;20.32;37.06;100899.02;1746572;82;20941;-60
2022/04/17 03:10:50;;;;;;;2.40;1.87;;;;;;;20.32;37.04;100925.27;1746293;82;21394;-59
2022/04/17 03:13:13;;;;;;;2.70;1.80;;;;;;;20.33;37.06;100928.81;1745467;82;20988;-60
2022/04/17 03:15:39;;;;;;;2.42;1.67;;;;;;;20.32;37.05;100935.50;1746622;82;21342;-60
2022/04/17 03:18:08;;;;;;;2.67;1.80;;;;;;;20.31;37.07;100947.67;1746363;82;21085;-60
2022/04/17 03:20:34;;;;;;;3.77;2.10;;;;;;;20.32;37.04;100953.45;1746767;82;21411;-60
2022/04/17 03:23:01;;;;;;;2.05;1.82;;;;;;;20.31;37.07;100948.49;1746805;82;21345;-60
2022/04/17 03:25:27;;;;;;;2.67;1.70;;;;;;;20.32;37.05;100950.69;1747213;81;20964;-60
2022/04/17 03:28:00;;;;;;;2.65;1.75;;;;;;;20.31;37.07;100955.95;1752322;81;20956;-60
2022/04/17 03:30:26;;;;;;;4.53;1.90;;;;;;;20.32;37.08;100958.98;1719315;82;20989;-60
2022/04/17 03:32:53;;;;;;;3.75;1.95;;;;;;;20.32;37.05;100967.27;1719396;83;20890;-60
2022/04/17 03:35:19;;;;;;;2.22;1.50;;;;;;;20.31;37.08;100969.77;1719424;83;21528;-60
2022/04/17 03:37:45;;;;;;;2.47;1.70;;;;;;;20.31;37.07;100976.68;1719514;83;21048;-60
2022/04/17 03:40:13;;;;;;;2.17;1.60;;;;;;;20.30;37.07;100966.19;1719194;83;21292;-60
2022/04/17 03:42:39;;;;;;;2.12;1.70;;;;;;;20.31;37.03;100967.02;1719621;83;20945;-60
2022/04/17 03:45:07;;;;;;;2.22;1.80;;;;;;;20.31;37.04;100969.77;1719702;82;21014;-60
2022/04/17 03:47:34;;;;;;;2.72;1.72;;;;;;;20.29;37.04;100970.08;1719439;83;21134;-60
2022/04/17 03:50:00;;;;;;;2.40;1.80;;;;;;;20.30;37.04;100974.48;1719223;82;21480;-60
2022/04/17 03:52:26;;;;;;;2.55;1.65;;;;;;;20.29;37.03;100983.89;1684502;85;21012;-59
2022/04/17 03:54:53;;;;;;;4.00;1.80;;;;;;;20.30;37.03;100977.80;1719166;83;21535;-60
2022/04/17 03:57:18;;;;;;;3.70;1.80;;;;;;;20.30;37.03;100983.33;1719397;83;20977;-60
2022/04/17 03:59:44;;;;;;;2.72;1.80;;;;;;;20.29;37.03;100981.12;1719365;83;20921;-60
2022/04/17 04:02:10;;;;;;;4.33;1.80;;;;;;;20.30;37.04;100980.56;1684213;85;20905;-60
2022/04/17 04:04:37;;;;;;;1.85;1.22;;;;;;;20.30;37.04;100973.66;1684598;84;21027;-60
2022/04/17 04:07:03;;;;;;;2.33;1.47;;;;;;;20.29;37.03;100975.59;1684353;84;21936;-59
2022/04/17 04:09:29;;;;;;;2.60;1.60;;;;;;;20.28;37.03;100975.34;1718972;82;21300;-60
2022/04/17 04:11:55;;;;;;;2.27;1.65;;;;;;;20.28;37.02;100988.33;1684709;85;21295;-59
2022/04/17 04:14:21;;;;;;;2.27;1.60;;;;;;;20.29;37.04;100996.84;1684421;85;21369;-60
2022/04/17 04:16:47;;;;;;;2.50;1.70;;;;;;;20.29;37.03;100999.61;1684294;84;20889;-60
2022/04/17 04:19:13;;;;;;;2.35;1.60;;;;;;;20.28;37.02;101003.53;1683944;83;21343;-60
2022/04/17 04:21:49;;;;;;;2.20;1.70;;;;;;;20.28;37.00;100998.00;1719063;82;20941;-60
2022/04/17 04:24:24;;;;;;;2.30;1.50;;;;;;;20.28;36.99;101000.77;1719186;83;21016;-60
2022/04/17 04:28:33;;;;;;;4.33;1.90;;;;;;;20.27;36.99;100996.36;1721952;83;20858;-60
2022/04/17 04:29:17;;;;;;;2.58;1.70;;;;;;;20.27;36.98;100999.13;1737712;81;21017;-60
2022/04/17 04:31:43;;;;;;;2.17;1.60;;;;;;;20.27;36.97;101002.70;1753232;81;20910;-60
2022/04/17 04:34:09;;;;;;;2.98;1.70;;;;;;;20.26;37.00;100987.25;1753016;81;20888;-60
2022/04/17 04:36:35;;;;;;;1.75;1.52;;;;;;;20.26;36.98;100994.72;1752551;81;21317;-60
2022/04/17 04:39:01;;;;;;;2.15;1.60;;;;;;;20.26;37.00;100999.69;1752853;81;21010;-60
2022/04/17 04:41:27;;;;;;;2.05;1.60;;;;;;;20.26;36.99;100993.34;1753112;81;21330;-60
2022/04/17 04:43:53;;;;;;;2.00;1.57;;;;;;;20.25;37.00;101009.09;1752927;81;21064;-60
2022/04/17 04:46:19;;;;;;;2.10;1.40;;;;;;;20.26;36.98;101007.15;1753006;81;20931;-60
2022/04/17 04:51:29;;;;;;;2.85;1.70;;;;;;;20.25;36.99;101012.41;1752979;81;21445;-59
2022/04/17 04:53:59;;;;;;;7.25;1.80;;;;;;;20.24;36.99;101014.36;1753253;81;21309;-60
2022/04/17 04:56:25;;;;;;;4.28;1.60;;;;;;;20.24;36.98;101011.59;1752827;81;21434;-60
2022/04/17 04:58:51;;;;;;;2.20;1.72;;;;;;;20.24;37.00;101008.83;1752408;81;21002;-60
2022/04/17 05:01:17;;;;;;;3.22;1.72;;;;;;;20.25;36.98;101011.03;1752950;81;21223;-60
2022/04/17 05:03:43;;;;;;;2.27;1.80;;;;;;;20.24;36.98;101013.56;1752709;81;21577;-60
2022/04/17 05:06:09;;;;;;;2.37;1.52;;;;;;;20.23;36.98;101013.30;1753123;81;20908;-60
2022/04/17 05:08:35;;;;;;;2.35;1.90;;;;;;;20.23;36.97;101017.45;1752904;81;21002;-59
2022/04/17 05:11:02;;;;;;;3.67;1.47;;;;;;;20.23;36.97;101027.12;1752844;81;21460;-60
2022/04/17 05:13:28;;;;;;;1.70;1.55;;;;;;;20.22;36.95;101012.48;1752987;81;21155;-60
2022/04/17 05:15:54;;;;;;;2.00;1.57;;;;;;;20.22;36.94;101005.58;1753346;81;21281;-60
2022/04/17 05:18:20;;;;;;;2.08;1.60;;;;;;;20.21;36.94;101009.46;1752926;81;20974;-60
2022/04/17 05:20:46;;;;;;;2.30;1.50;;;;;;;20.22;36.94;101019.95;1752783;81;21084;-60
2022/04/17 05:23:17;;;;;;;1.87;1.50;;;;;;;20.21;36.90;101012.78;1753219;81;20974;-60
2022/04/17 05:25:43;;;;;;;2.25;1.80;;;;;;;20.21;36.88;101015.55;1753086;81;24907;-60
2022/04/17 05:28:09;;;;;;;2.52;1.65;;;;;;;20.20;36.87;101018.08;1739773;81;20972;-60
2022/04/17 05:30:35;;;;;;;2.60;1.57;;;;;;;20.21;36.85;101022.45;1739409;82;20884;-60
2022/04/17 05:33:01;;;;;;;2.27;1.62;;;;;;;20.20;36.85;101027.75;1739876;82;20944;-60
2022/04/17 05:35:27;;;;;;;2.87;1.65;;;;;;;20.20;36.86;101022.22;1739458;82;21006;-60
2022/04/17 05:37:53;;;;;;;1.60;1.50;;;;;;;20.20;36.85;101013.94;1739951;82;21178;-59
2022/04/17 05:40:19;;;;;;;3.05;1.42;;;;;;;20.20;36.82;101016.70;1739433;82;20857;-59
2022/04/17 05:42:46;;;;;;;1.70;1.47;;;;;;;20.19;36.82;101013.67;1739592;82;20916;-59
2022/04/17 05:45:12;;;;;;;1.90;1.30;;;;;;;20.20;36.83;101018.08;1739671;82;20968;-59
2022/04/17 05:47:38;;;;;;;2.35;1.62;;;;;;;20.19;36.83;101023.34;1739938;82;21011;-59
2022/04/17 05:50:05;;;;;;;2.15;1.72;;;;;;;20.18;36.83;101026.66;1739535;82;21954;-59
2022/04/17 05:52:31;;;;;;;1.77;1.60;;;;;;;20.18;36.86;101021.70;1739716;82;20971;-59
2022/04/17 05:54:57;;;;;;;2.00;1.62;;;;;;;20.19;36.84;101033.02;1739985;82;22048;-59
2022/04/17 05:57:23;;;;;;;2.30;1.60;;;;;;;20.19;36.83;101043.50;1739672;82;21011;-59
2022/04/17 05:59:49;;;;;;;1.67;1.40;;;;;;;20.18;36.84;101036.89;1739847;82;21226;-59
2022/04/17 06:02:16;;;;;;;2.45;1.50;;;;;;;20.18;36.84;101040.48;1739355;82;21143;-59
2022/04/17 06:04:42;;;;;;;1.70;1.45;;;;;;;20.18;36.82;101034.95;1739723;82;20919;-59
2022/04/17 06:07:11;;;;;;;2.42;1.40;;;;;;;20.18;36.83;101040.48;1739821;82;21012;-59
2022/04/17 06:09:37;;;;;;;2.00;1.42;;;;;;;20.18;36.82;101043.80;1739758;82;21067;-59
2022/04/17 06:12:05;;;;;;;2.00;1.62;;;;;;;20.17;36.81;101046.30;1739357;82;21059;-59
2022/04/17 06:14:31;;;;;;;2.00;1.60;;;;;;;20.18;36.80;101047.94;1740017;82;21134;-59
2022/04/17 06:16:57;;;;;;;1.75;1.50;;;;;;;20.17;36.79;101039.39;1739641;82;20911;-59
2022/04/17 06:19:23;;;;;;;1.90;1.45;;;;;;;20.16;36.77;101049.63;1739483;82;20991;-59
2022/04/17 06:21:49;;;;;;;2.22;1.45;;;;;;;20.17;36.79;101054.03;1739198;82;21340;-59
2022/04/17 06:24:15;;;;;;;2.17;1.40;;;;;;;20.15;36.76;101051.33;1739809;82;20920;-59
2022/04/17 06:26:42;;;;;;;1.70;1.40;;;;;;;20.15;36.75;101056.30;1741546;82;21495;-59
2022/04/17 06:29:08;;;;;;;2.55;1.60;;;;;;;20.16;36.76;101063.99;1747416;81;20963;-59
2022/04/17 06:31:34;;;;;;;1.77;1.42;;;;;;;20.16;36.75;101057.09;1747885;81;20959;-59
2022/04/17 06:34:03;;;;;;;4.17;1.98;;;;;;;20.15;36.75;101057.67;1747389;82;20999;-59
2022/04/17 06:36:29;;;;;;;2.35;1.70;;;;;;;20.15;36.74;101071.48;1747866;82;21372;-59
2022/04/17 06:38:56;;;;;;;1.92;1.42;;;;;;;20.15;36.74;101069.29;1747642;82;21332;-59
2022/04/17 06:41:22;;;;;;;1.65;1.32;;;;;;;20.15;36.74;101072.05;1747501;82;21925;-59
2022/04/17 06:43:54;;;;;;;2.65;1.47;;;;;;;20.15;36.74;101074.81;1747520;82;20919;-59
2022/04/17 06:46:20;;;;;;;2.70;1.60;;;;;;;20.15;36.72;101080.34;1747678;82;21345;-59
2022/04/17 06:48:46;;;;;;;1.67;1.27;;;;;;;20.14;36.70;101085.04;1747451;82;20986;-59
2022/04/17 06:51:12;;;;;;;1.92;1.45;;;;;;;20.14;36.71;101088.36;1747699;82;21284;-59
2022/04/17 06:53:38;;;;;;;2.10;1.52;;;;;;;20.13;36.69;101089.48;1747425;82;20931;-59
2022/04/17 06:56:06;;;;;;;1.80;1.47;;;;;;;20.13;36.67;101095.83;1747620;82;20983;-59
2022/04/17 06:58:32;;;;;;;2.10;1.40;;;;;;;20.13;36.67;101093.06;1718137;82;21492;-59
2022/04/17 07:01:05;;;;;;;2.80;1.40;;;;;;;20.12;36.67;101101.09;1747783;82;21029;-59
2022/04/17 07:03:31;;;;;;;2.08;1.40;;;;;;;20.13;36.64;101105.50;1747665;82;21150;-59
2022/04/17 07:05:57;;;;;;;2.00;1.60;;;;;;;20.12;36.62;101107.99;1747693;82;21345;-59
2022/04/17 07:08:23;;;;;;;1.95;1.52;;;;;;;20.11;36.60;101107.77;1747694;82;20975;-59
2022/04/17 07:10:50;;;;;;;2.00;1.40;;;;;;;20.12;36.59;101114.08;1747473;82;21376;-59
2022/04/17 07:13:18;;;;;;;2.55;1.37;;;;;;;20.10;36.59;101106.12;1747499;82;20955;-59
2022/04/17 07:15:44;;;;;;;2.15;1.55;;;;;;;20.11;36.57;101116.05;1747885;82;21102;-59
2022/04/17 07:18:10;;;;;;;2.40;1.47;;;;;;;20.10;36.58;101114.96;1747237;82;20915;-59
2022/04/17 07:20:42;;;;;;;1.80;1.50;;;;;;;20.11;36.57;101121.57;1747591;82;20923;-59
2022/04/17 07:23:08;;;;;;;1.70;1.25;;;;;;;20.09;36.57;101116.91;1747748;82;21057;-59
2022/04/17 07:25:34;;;;;;;1.85;1.52;;;;;;;20.10;36.56;101124.07;1747429;82;21011;-59
2022/04/17 07:28:01;;;;;;;3.00;1.32;;;;;;;20.10;36.55;101122.69;1742216;82;21725;-59
2022/04/17 07:30:33;;;;;;;1.95;1.40;;;;;;;20.10;36.56;101121.87;1746179;82;20976;-59
2022/04/17 07:33:00;;;;;;;2.30;1.25;;;;;;;20.08;36.54;101118.84;1746531;82;21384;-59
2022/04/17 07:35:27;;;;;;;2.50;1.30;;;;;;;20.09;36.53;101112.76;1746610;82;20928;-59
2022/04/17 07:37:58;;;;;;;1.92;1.55;;;;;;;20.08;36.53;101111.11;1746477;82;21001;-59
2022/04/17 07:40:26;;;;;;;2.00;1.47;;;;;;;20.08;36.52;101116.64;1746464;82;21703;-59
2022/04/17 07:42:55;;;;;;;1.70;1.40;;;;;;;20.08;36.51;101110.55;1746571;82;21330;-59
2022/04/17 07:45:21;;;;;;;2.27;1.40;;;;;;;20.06;36.53;101105.92;1746462;82;21099;-59
2022/04/17 07:47:47;;;;;;;2.00;1.35;;;;;;;20.07;36.51;101113.05;1746203;82;20961;-59
2022/04/17 07:50:16;;;;;;;1.45;1.22;;;;;;;20.07;36.47;101108.91;1746447;82;21008;-59
2022/04/17 07:52:43;;;;;;;2.52;1.80;;;;;;;20.06;36.48;101107.30;1746228;82;21689;-59
2022/04/17 07:55:13;;;;;;;1.62;1.40;;;;;;;20.07;36.47;101105.36;1746014;80;20999;-59
2022/04/17 07:58:04;;;;;;;2.55;1.67;;;;;;;20.06;36.47;101105.09;1746830;82;21000;-59
2022/04/17 08:00:33;;;;;;;4.00;1.30;;;;;;;20.06;36.48;101107.86;1745245;82;21310;-59
2022/04/17 08:05:44;;;;;;;1.92;1.30;;;;;;;20.05;36.42;101097.92;1745882;82;21061;-59
2022/04/17 08:08:10;;;;;;;2.22;1.70;;;;;;;20.03;36.44;101099.60;1746546;82;20937;-59
2022/04/17 08:10:37;;;;;;;2.37;1.50;;;;;;;20.03;36.44;101092.70;1745742;82;20948;-59
2022/04/17 08:13:04;;;;;;;2.37;1.40;;;;;;;20.03;36.46;101098.78;1745843;82;20913;-59
2022/04/17 08:15:30;;;;;;;1.87;1.20;;;;;;;20.03;36.46;101095.46;1745820;82;21504;-59
2022/04/17 08:17:56;;;;;;;1.75;1.30;;;;;;;20.03;36.45;101086.35;1745826;82;21199;-59
2022/04/17 08:20:22;;;;;;;2.17;1.55;;;;;;;20.03;36.41;101077.51;1745817;82;20945;-59
2022/04/17 08:22:48;;;;;;;2.35;1.35;;;;;;;20.02;36.39;101080.59;1746393;82;20930;-59
2022/04/17 08:25:14;;;;;;;1.60;1.12;;;;;;;20.03;36.35;101079.45;1746548;80;20861;-59
2022/04/17 08:27:47;;;;;;;1.60;1.22;;;;;;;20.02;36.32;101070.93;1748217;81;20940;-59
2022/04/17 08:30:16;;;;;;;2.00;1.30;;;;;;;20.01;36.29;101074.81;1751548;81;21583;-59
2022/04/17 08:32:42;;;;;;;1.32;1.07;;;;;;;20.00;36.27;101076.75;1751443;80;20987;-59
2022/04/17 08:35:08;;;;;;;2.08;1.25;;;;;;;20.01;36.25;101072.05;1752345;80;20901;-59
2022/04/17 08:37:34;;;;;;;1.90;1.30;;;;;;;20.01;36.23;101077.02;1752226;80;20981;-59
2022/04/17 08:40:00;;;;;;;1.80;1.37;;;;;;;20.01;36.23;101072.05;1752002;81;20914;-59
2022/04/17 08:42:26;;;;;;;1.90;1.17;;;;;;;20.00;36.22;101069.02;1752233;81;21193;-59
2022/04/17 08:44:53;;;;;;;2.12;1.42;;;;;;;20.01;36.21;101065.14;1751906;81;20988;-59
2022/04/17 08:47:19;;;;;;;2.00;1.20;;;;;;;19.99;36.21;101072.34;1751723;81;20983;-59
2022/04/17 08:49:45;;;;;;;2.45;1.30;;;;;;;19.99;36.17;101072.91;1751976;81;21376;-59
2022/04/17 08:52:15;;;;;;;2.10;1.35;;;;;;;19.99;36.16;101083.95;1751947;81;21066;-59
2022/04/17 08:54:45;;;;;;;1.50;1.17;;;;;;;19.99;36.15;101082.02;1751516;81;20998;-59
2022/04/17 08:57:11;;;;;;;2.47;1.42;;;;;;;19.99;36.16;101079.80;1752040;81;20976;-59
2022/04/17 08:59:38;;;;;;;3.02;1.30;;;;;;;19.99;36.13;101086.16;1752050;80;21004;-59
2022/04/17 09:02:12;;;;;;;3.52;1.12;;;;;;;19.98;36.14;101079.02;1752124;80;21297;-60
2022/04/17 09:04:40;;;;;;;1.75;1.35;;;;;;;19.99;36.13;101085.33;1752276;81;20968;-59
2022/04/17 09:07:10;;;;;;;2.72;1.30;;;;;;;19.98;36.14;101085.92;1752139;81;21055;-59
2022/04/17 09:09:39;;;;;;;1.98;1.27;;;;;;;19.98;36.16;101079.02;1751899;81;20917;-59
2022/04/17 09:12:06;;;;;;;1.95;1.30;;;;;;;19.98;36.19;101079.02;1752062;81;21055;-59
2022/04/17 09:14:38;;;;;;;1.42;1.02;;;;;;;19.99;36.13;101085.33;1751970;81;20925;-59
2022/04/17 09:17:08;;;;;;;2.58;1.20;;;;;;;19.97;36.15;101080.69;1751962;80;20992;-59
2022/04/17 09:19:34;;;;;;;1.70;1.17;;;;;;;19.97;36.11;101081.52;1751447;81;22250;-60
2022/04/17 09:22:01;;;;;;;1.82;1.20;;;;;;;19.97;36.09;101075.99;1751953;80;20944;-60
2022/04/17 09:24:27;;;;;;;1.55;1.25;;;;;;;19.96;36.11;101078.48;1752255;80;20983;-60
2022/04/17 09:26:57;;;;;;;1.72;1.20;;;;;;;19.96;36.10;101079.88;1751909;80;20948;-60
2022/04/17 09:29:33;;;;;;;1.75;1.30;;;;;;;19.96;36.11;101079.88;1749704;81;21024;-60
2022/04/17 09:32:04;;;;;;;2.05;1.40;;;;;;;19.95;36.12;101079.61;1749221;82;21321;-59
2022/04/17 09:34:52;;;;;;;1.85;1.20;;;;;;;19.95;36.15;101079.61;1749274;80;20934;-60
2022/04/17 09:37:23;;;;;;;2.15;1.30;;;;;;;19.96;36.12;101080.43;1748764;81;21185;-59
2022/04/17 09:39:55;;;;;;;1.75;1.22;;;;;;;19.94;36.13;101089.01;1749157;82;20951;-60
2022/04/17 09:42:22;;;;;;;1.65;1.00;;;;;;;19.94;36.12;101086.25;1748653;81;20988;-60
2022/04/17 09:44:54;;;;;;;1.35;1.17;;;;;;;19.94;36.13;101091.77;1748870;80;21316;-60
2022/04/17 09:47:27;;;;;;;1.82;1.20;;;;;;;19.94;36.15;101090.39;1749565;82;24938;-60
2022/04/17 09:50:06;;;;;;;1.98;1.20;;;;;;;19.94;36.15;101090.39;1748915;80;20941;-61
2022/04/17 09:52:46;;;;;;;1.75;1.15;;;;;;;19.94;36.18;101093.74;1749426;82;20977;-61
2022/04/17 09:55:13;;;;;;;1.50;1.05;;;;;;;19.92;36.19;101099.56;1749473;82;20949;-61
2022/04/17 09:57:41;;;;;;;1.22;1.00;;;;;;;19.92;36.18;101101.50;1748988;82;21177;-61
2022/04/17 10:00:16;;;;;;;1.40;1.07;;;;;;;19.92;36.20;101089.89;1749106;80;20963;-61
2022/04/17 10:02:44;;;;;;;1.42;1.05;;;;;;;19.92;36.21;101087.13;1749173;82;20997;-61
2022/04/17 10:05:14;;;;;;;1.72;1.17;;;;;;;19.91;36.19;101088.25;1749759;80;20980;-61
2022/04/17 10:07:42;;;;;;;2.15;1.30;;;;;;;19.91;36.16;101088.25;1749413;81;20988;-61
2022/04/17 10:10:11;;;;;;;1.85;1.02;;;;;;;19.90;36.14;101087.98;1748929;82;21213;-61
2022/04/17 10:12:45;;;;;;;1.98;1.10;;;;;;;19.92;36.13;101098.73;1749389;82;20961;-61
2022/04/17 10:15:12;;;;;;;3.25;1.17;;;;;;;19.90;36.10;101105.94;1749095;82;20954;-61
2022/04/17 10:17:40;;;;;;;1.95;1.20;;;;;;;19.91;36.09;101095.71;1749450;82;21358;-61
2022/04/17 10:20:09;;;;;;;1.52;1.00;;;;;;;19.90;36.03;101097.65;1749292;82;20977;-61
2022/04/17 10:22:37;;;;;;;1.92;1.15;;;;;;;19.91;36.02;101097.09;1749390;80;21124;-61
2022/04/17 10:25:05;;;;;;;1.62;1.10;;;;;;;19.90;36.03;101098.23;1749122;82;20894;-61
2022/04/17 10:27:51;;;;;;;1.30;0.88;;;;;;;19.89;36.01;101097.42;1749623;82;21367;-61
2022/04/17 10:30:18;;;;;;;1.50;0.93;;;;;;;19.90;35.99;101109.28;1747354;81;20935;-61
2022/04/17 10:33:08;;;;;;;1.40;1.07;;;;;;;19.89;35.99;101096.03;1747591;82;21034;-61
2022/04/17 10:35:59;;;;;;;1.40;0.90;;;;;;;19.89;35.99;101097.42;1747238;82;21020;-61
2022/04/17 10:39:03;;;;;;;1.77;1.10;;;;;;;19.89;35.99;101097.98;1747608;81;22194;-61
2022/04/17 10:41:29;;;;;;;1.40;1.05;;;;;;;19.88;35.98;101102.67;1747493;81;21007;-61
2022/04/17 10:43:57;;;;;;;1.20;0.98;;;;;;;19.87;35.99;101102.41;1718236;82;21318;-61
2022/04/17 10:46:23;;;;;;;1.80;1.00;;;;;;;19.86;35.98;101084.20;1747886;82;21959;-61
2022/04/17 10:48:57;;;;;;;2.05;1.30;;;;;;;19.86;36.00;101092.48;1747658;82;21170;-61
2022/04/17 10:51:26;;;;;;;1.45;1.00;;;;;;;19.86;36.01;101091.10;1747749;82;21667;-61
2022/04/17 10:54:10;;;;;;;1.45;1.00;;;;;;;19.86;36.05;101088.94;1747580;81;21074;-61
2022/04/17 10:56:57;;;;;;;1.60;1.10;;;;;;;19.86;36.03;101088.34;1747746;82;21046;-61
2022/04/17 10:59:32;;;;;;;1.32;1.15;;;;;;;19.86;36.05;101084.20;1747420;81;20988;-61
2022/04/17 11:02:19;;;;;;;1.32;1.10;;;;;;;19.86;36.03;101087.55;1747729;81;22296;-61
2022/04/17 11:04:53;;;;;;;1.75;1.25;;;;;;;19.85;36.01;101082.59;1747602;82;20963;-61
2022/04/17 11:07:28;;;;;;;1.27;1.00;;;;;;;19.84;36.00;101065.75;1747836;82;20992;-61
2022/04/17 11:10:17;;;;;;;1.20;1.07;;;;;;;19.84;36.02;101068.52;1747514;81;21027;-61
2022/04/17 11:12:55;;;;;;;1.52;1.10;;;;;;;19.83;36.01;101061.35;1747697;82;20991;-61
2022/04/17 11:15:23;;;;;;;1.67;1.20;;;;;;;19.82;35.97;101055.56;1747555;82;21749;-61
2022/04/17 11:17:50;;;;;;;1.17;1.00;;;;;;;19.82;35.95;101062.47;1747148;82;20908;-61
2022/04/17 11:20:16;;;;;;;1.77;1.10;;;;;;;19.82;35.97;101057.50;1693897;82;20999;-61
2022/04/17 11:22:42;;;;;;;1.60;1.10;;;;;;;19.82;35.95;101045.08;1717802;82;20912;-61
2022/04/17 11:25:10;;;;;;;1.70;1.22;;;;;;;19.83;35.93;101043.97;1747683;82;20995;-61
2022/04/17 11:27:51;;;;;;;1.72;1.02;;;;;;;19.82;35.94;101041.77;1747565;81;21108;-61
2022/04/17 11:30:25;;;;;;;1.77;1.20;;;;;;;19.82;35.95;101045.91;1751577;81;21345;-61
2022/04/17 11:32:51;;;;;;;1.32;1.00;;;;;;;19.82;35.94;101042.32;1752340;81;20925;-61
2022/04/17 11:35:21;;;;;;;1.82;1.10;;;;;;;19.81;35.94;101041.53;1751827;81;20924;-61
2022/04/17 11:37:59;;;;;;;1.20;0.95;;;;;;;19.81;35.96;101037.39;1752201;80;20961;-61
2022/04/17 11:40:28;;;;;;;1.17;1.00;;;;;;;19.81;35.98;101037.39;1752119;81;21802;-61